sensor_id;sensor_type;location;lat;lon;timestamp;temperature;humidity
30648;DHT22;17683;53.360;9.736;2023-04-28T00:01:36;4.30;99.90
30648;DHT22;17683;53.360;9.736;2023-04-28T00:04:02;4.30;99.90
30648;DHT22;17683;53.360;9.736;2023-04-28T00:06:28;4.30;99.90
30648;DHT22;17683;53.360;9.736;2023-04-28T00:08:55;4.30;99.90
30648;DHT22;17683;53.360;9.736;2023-04-28T00:11:21;4.20;99.90
30648;DHT22;17683;53.360;9.736;2023-04-28T00:13:46;4.10;99.90
30648;DHT22;17683;53.360;9.736;2023-04-28T00:16:12;4.00;99.90
30648;DHT22;17683;53.360;9.736;2023-04-28T00:18:37;4.00;99.90
30648;DHT22;17683;53.360;9.736;2023-04-28T00:21:03;4.00;99.90
30648;DHT22;17683;53.360;9.736;2023-04-28T00:23:29;4.00;99.90
30648;DHT22;17683;53.360;9.736;2023-04-28T00:25:55;3.90;99.90
30648;DHT22;17683;53.360;9.736;2023-04-28T00:28:22;3.90;99.90
30648;DHT22;17683;53.360;9.736;2023-04-28T00:30:47;3.90;99.90
30648;DHT22;17683;53.360;9.736;2023-04-28T00:33:13;3.80;99.90
30648;DHT22;17683;53.360;9.736;2023-04-28T00:35:40;3.70;99.90
30648;DHT22;17683;53.360;9.736;2023-04-28T00:38:06;3.60;99.90
30648;DHT22;17683;53.360;9.736;2023-04-28T00:40:36;3.60;99.90
30648;DHT22;17683;53.360;9.736;2023-04-28T00:43:03;3.70;99.90
30648;DHT22;17683;53.360;9.736;2023-04-28T00:45:29;3.60;99.90
30648;DHT22;17683;53.360;9.736;2023-04-28T00:47:55;3.60;99.90
30648;DHT22;17683;53.360;9.736;2023-04-28T00:50:22;3.60;99.90
30648;DHT22;17683;53.360;9.736;2023-04-28T00:52:48;3.60;99.90
30648;DHT22;17683;53.360;9.736;2023-04-28T00:55:15;3.50;99.90
30648;DHT22;17683;53.360;9.736;2023-04-28T00:57:41;3.50;99.90
30648;DHT22;17683;53.360;9.736;2023-04-28T01:00:08;3.50;99.90
30648;DHT22;17683;53.360;9.736;2023-04-28T01:02:37;3.50;99.90
30648;DHT22;17683;53.360;9.736;2023-04-28T01:05:03;3.50;99.90
30648;DHT22;17683;53.360;9.736;2023-04-28T01:07:29;3.40;99.90
30648;DHT22;17683;53.360;9.736;2023-04-28T01:09:55;3.50;99.90
30648;DHT22;17683;53.360;9.736;2023-04-28T01:12:21;3.40;99.90
30648;DHT22;17683;53.360;9.736;2023-04-28T01:14:48;3.40;99.90
30648;DHT22;17683;53.360;9.736;2023-04-28T01:17:14;3.40;99.90
30648;DHT22;17683;53.360;9.736;2023-04-28T01:19:39;3.30;99.90
30648;DHT22;17683;53.360;9.736;2023-04-28T01:22:05;3.30;99.90
30648;DHT22;17683;53.360;9.736;2023-04-28T01:24:31;3.30;99.90
30648;DHT22;17683;53.360;9.736;2023-04-28T01:26:57;3.40;99.90
30648;DHT22;17683;53.360;9.736;2023-04-28T01:29:22;3.40;99.90
30648;DHT22;17683;53.360;9.736;2023-04-28T01:31:48;3.40;99.90
30648;DHT22;17683;53.360;9.736;2023-04-28T01:34:14;3.30;99.90
30648;DHT22;17683;53.360;9.736;2023-04-28T01:36:40;3.30;99.90
30648;DHT22;17683;53.360;9.736;2023-04-28T01:39:05;3.30;99.90
30648;DHT22;17683;53.360;9.736;2023-04-28T01:41:31;3.30;99.90
30648;DHT22;17683;53.360;9.736;2023-04-28T01:44:00;3.40;99.90
30648;DHT22;17683;53.360;9.736;2023-04-28T01:46:26;3.40;99.90
30648;DHT22;17683;53.360;9.736;2023-04-28T01:48:52;3.30;99.90
30648;DHT22;17683;53.360;9.736;2023-04-28T01:51:17;3.30;99.90
30648;DHT22;17683;53.360;9.736;2023-04-28T01:53:43;3.30;99.90
30648;DHT22;17683;53.360;9.736;2023-04-28T01:56:09;3.30;99.90
30648;DHT22;17683;53.360;9.736;2023-04-28T01:58:34;3.30;99.90
30648;DHT22;17683;53.360;9.736;2023-04-28T02:01:00;3.30;99.90
30648;DHT22;17683;53.360;9.736;2023-04-28T02:03:26;3.30;99.90
30648;DHT22;17683;53.360;9.736;2023-04-28T02:05:53;3.30;99.90
30648;DHT22;17683;53.360;9.736;2023-04-28T02:08:18;3.30;99.90
30648;DHT22;17683;53.360;9.736;2023-04-28T02:10:44;3.30;99.90
30648;DHT22;17683;53.360;9.736;2023-04-28T02:13:10;3.40;99.90
30648;DHT22;17683;53.360;9.736;2023-04-28T02:15:40;3.40;99.90
30648;DHT22;17683;53.360;9.736;2023-04-28T02:18:06;3.40;99.90
30648;DHT22;17683;53.360;9.736;2023-04-28T02:20:31;3.40;99.90
30648;DHT22;17683;53.360;9.736;2023-04-28T02:22:57;3.40;99.90
30648;DHT22;17683;53.360;9.736;2023-04-28T02:25:23;3.40;99.90
30648;DHT22;17683;53.360;9.736;2023-04-28T02:27:48;3.40;99.90
30648;DHT22;17683;53.360;9.736;2023-04-28T02:30:14;3.30;99.90
30648;DHT22;17683;53.360;9.736;2023-04-28T02:32:40;3.30;99.90
30648;DHT22;17683;53.360;9.736;2023-04-28T02:35:06;3.30;99.90
30648;DHT22;17683;53.360;9.736;2023-04-28T02:37:32;3.40;99.90
30648;DHT22;17683;53.360;9.736;2023-04-28T02:39:57;3.40;99.90
30648;DHT22;17683;53.360;9.736;2023-04-28T02:42:23;3.40;99.90
30648;DHT22;17683;53.360;9.736;2023-04-28T02:44:49;3.40;99.90
30648;DHT22;17683;53.360;9.736;2023-04-28T02:47:15;3.30;99.90
30648;DHT22;17683;53.360;9.736;2023-04-28T02:49:40;3.30;99.90
30648;DHT22;17683;53.360;9.736;2023-04-28T02:52:06;3.30;99.90
30648;DHT22;17683;53.360;9.736;2023-04-28T02:54:31;3.30;99.90
30648;DHT22;17683;53.360;9.736;2023-04-28T02:56:59;3.40;99.90
30648;DHT22;17683;53.360;9.736;2023-04-28T02:59:25;3.30;99.90
30648;DHT22;17683;53.360;9.736;2023-04-28T03:01:51;3.30;99.90
30648;DHT22;17683;53.360;9.736;2023-04-28T03:04:17;3.30;99.90
30648;DHT22;17683;53.360;9.736;2023-04-28T03:06:43;3.40;99.90
30648;DHT22;17683;53.360;9.736;2023-04-28T03:09:09;3.30;99.90
30648;DHT22;17683;53.360;9.736;2023-04-28T03:11:35;3.30;99.90
30648;DHT22;17683;53.360;9.736;2023-04-28T03:14:01;3.30;99.90
30648;DHT22;17683;53.360;9.736;2023-04-28T03:16:27;3.30;99.90
30648;DHT22;17683;53.360;9.736;2023-04-28T03:18:52;3.30;99.90
30648;DHT22;17683;53.360;9.736;2023-04-28T03:21:18;3.40;99.90
30648;DHT22;17683;53.360;9.736;2023-04-28T03:23:44;3.40;99.90
30648;DHT22;17683;53.360;9.736;2023-04-28T03:26:09;3.40;99.90
30648;DHT22;17683;53.360;9.736;2023-04-28T03:28:35;3.40;99.90
30648;DHT22;17683;53.360;9.736;2023-04-28T03:31:01;3.50;99.90
30648;DHT22;17683;53.360;9.736;2023-04-28T03:33:27;3.60;99.90
30648;DHT22;17683;53.360;9.736;2023-04-28T03:35:53;3.60;99.90
30648;DHT22;17683;53.360;9.736;2023-04-28T03:38:19;3.60;99.90
30648;DHT22;17683;53.360;9.736;2023-04-28T03:40:45;3.70;99.90
30648;DHT22;17683;53.360;9.736;2023-04-28T03:43:11;3.60;99.90
30648;DHT22;17683;53.360;9.736;2023-04-28T03:45:37;3.70;99.90
30648;DHT22;17683;53.360;9.736;2023-04-28T03:48:03;3.70;99.90
30648;DHT22;17683;53.360;9.736;2023-04-28T03:50:29;3.70;99.90
30648;DHT22;17683;53.360;9.736;2023-04-28T03:52:54;3.80;99.90
30648;DHT22;17683;53.360;9.736;2023-04-28T03:55:20;3.70;99.90
30648;DHT22;17683;53.360;9.736;2023-04-28T03:57:46;3.80;99.90
30648;DHT22;17683;53.360;9.736;2023-04-28T04:00:13;3.80;99.90
30648;DHT22;17683;53.360;9.736;2023-04-28T04:02:39;3.80;99.90
30648;DHT22;17683;53.360;9.736;2023-04-28T04:05:05;3.80;99.90
30648;DHT22;17683;53.360;9.736;2023-04-28T04:07:31;3.80;99.90
30648;DHT22;17683;53.360;9.736;2023-04-28T04:09:56;3.90;99.90
30648;DHT22;17683;53.360;9.736;2023-04-28T04:12:22;3.90;99.90
30648;DHT22;17683;53.360;9.736;2023-04-28T04:14:48;3.80;99.90
30648;DHT22;17683;53.360;9.736;2023-04-28T04:17:13;3.90;99.90
30648;DHT22;17683;53.360;9.736;2023-04-28T04:19:39;3.90;99.90
30648;DHT22;17683;53.360;9.736;2023-04-28T04:22:05;4.00;99.90
30648;DHT22;17683;53.360;9.736;2023-04-28T04:24:31;4.00;99.90
30648;DHT22;17683;53.360;9.736;2023-04-28T04:26:57;4.00;99.90
30648;DHT22;17683;53.360;9.736;2023-04-28T04:29:22;3.90;99.90
30648;DHT22;17683;53.360;9.736;2023-04-28T04:31:48;3.90;99.90
30648;DHT22;17683;53.360;9.736;2023-04-28T04:34:14;4.00;99.90
30648;DHT22;17683;53.360;9.736;2023-04-28T04:36:39;4.00;99.90
30648;DHT22;17683;53.360;9.736;2023-04-28T04:39:05;4.10;99.90
30648;DHT22;17683;53.360;9.736;2023-04-28T04:41:31;4.00;99.90
30648;DHT22;17683;53.360;9.736;2023-04-28T04:43:56;4.10;99.90
30648;DHT22;17683;53.360;9.736;2023-04-28T04:46:22;4.20;99.90
30648;DHT22;17683;53.360;9.736;2023-04-28T04:48:48;4.20;99.90
30648;DHT22;17683;53.360;9.736;2023-04-28T04:51:13;4.20;99.90
30648;DHT22;17683;53.360;9.736;2023-04-28T04:53:39;4.30;99.90
30648;DHT22;17683;53.360;9.736;2023-04-28T04:56:05;4.30;99.90
30648;DHT22;17683;53.360;9.736;2023-04-28T04:58:31;4.40;99.90
30648;DHT22;17683;53.360;9.736;2023-04-28T05:00:57;4.50;99.90
30648;DHT22;17683;53.360;9.736;2023-04-28T05:03:23;4.50;99.90
30648;DHT22;17683;53.360;9.736;2023-04-28T05:05:48;4.50;99.90
30648;DHT22;17683;53.360;9.736;2023-04-28T05:08:14;4.60;99.90
30648;DHT22;17683;53.360;9.736;2023-04-28T05:10:40;4.70;99.90
30648;DHT22;17683;53.360;9.736;2023-04-28T05:13:05;4.70;99.90
30648;DHT22;17683;53.360;9.736;2023-04-28T05:15:31;4.80;99.90
30648;DHT22;17683;53.360;9.736;2023-04-28T05:17:57;4.90;99.90
30648;DHT22;17683;53.360;9.736;2023-04-28T05:20:23;4.90;99.90
30648;DHT22;17683;53.360;9.736;2023-04-28T05:22:49;5.00;99.90
30648;DHT22;17683;53.360;9.736;2023-04-28T05:25:15;5.10;99.90
30648;DHT22;17683;53.360;9.736;2023-04-28T05:27:41;5.10;99.90
30648;DHT22;17683;53.360;9.736;2023-04-28T05:30:07;5.20;99.90
30648;DHT22;17683;53.360;9.736;2023-04-28T05:32:34;5.30;99.90
30648;DHT22;17683;53.360;9.736;2023-04-28T05:35:00;5.30;99.90
30648;DHT22;17683;53.360;9.736;2023-04-28T05:37:26;5.40;99.90
30648;DHT22;17683;53.360;9.736;2023-04-28T05:39:52;5.50;99.90
30648;DHT22;17683;53.360;9.736;2023-04-28T05:42:18;5.60;99.90
30648;DHT22;17683;53.360;9.736;2023-04-28T05:44:44;5.80;99.90
30648;DHT22;17683;53.360;9.736;2023-04-28T05:47:10;5.90;99.90
30648;DHT22;17683;53.360;9.736;2023-04-28T05:49:36;6.00;99.90
30648;DHT22;17683;53.360;9.736;2023-04-28T05:52:02;6.20;99.90
30648;DHT22;17683;53.360;9.736;2023-04-28T05:54:28;6.30;99.90
30648;DHT22;17683;53.360;9.736;2023-04-28T05:56:54;6.40;99.90
30648;DHT22;17683;53.360;9.736;2023-04-28T05:59:20;6.60;99.90
30648;DHT22;17683;53.360;9.736;2023-04-28T06:01:45;6.70;99.90
30648;DHT22;17683;53.360;9.736;2023-04-28T06:04:11;6.90;99.90
30648;DHT22;17683;53.360;9.736;2023-04-28T06:06:37;7.00;99.90
30648;DHT22;17683;53.360;9.736;2023-04-28T06:09:03;7.10;99.90
30648;DHT22;17683;53.360;9.736;2023-04-28T06:11:28;7.30;99.90
30648;DHT22;17683;53.360;9.736;2023-04-28T06:13:54;7.40;99.90
30648;DHT22;17683;53.360;9.736;2023-04-28T06:16:20;7.60;99.90
30648;DHT22;17683;53.360;9.736;2023-04-28T06:18:48;7.70;99.90
30648;DHT22;17683;53.360;9.736;2023-04-28T06:21:15;7.80;99.90
30648;DHT22;17683;53.360;9.736;2023-04-28T06:23:41;8.00;99.90
30648;DHT22;17683;53.360;9.736;2023-04-28T06:26:07;8.10;99.90
30648;DHT22;17683;53.360;9.736;2023-04-28T06:28:33;8.20;99.90
30648;DHT22;17683;53.360;9.736;2023-04-28T06:30:59;8.20;99.90
30648;DHT22;17683;53.360;9.736;2023-04-28T06:33:25;8.20;99.90
30648;DHT22;17683;53.360;9.736;2023-04-28T06:35:51;8.30;99.90
30648;DHT22;17683;53.360;9.736;2023-04-28T06:38:18;8.40;99.90
30648;DHT22;17683;53.360;9.736;2023-04-28T06:40:44;8.50;99.90
30648;DHT22;17683;53.360;9.736;2023-04-28T06:43:10;8.60;99.90
30648;DHT22;17683;53.360;9.736;2023-04-28T06:45:37;8.70;99.90
30648;DHT22;17683;53.360;9.736;2023-04-28T06:48:04;8.80;99.90
30648;DHT22;17683;53.360;9.736;2023-04-28T06:50:30;8.80;99.90
30648;DHT22;17683;53.360;9.736;2023-04-28T06:52:56;8.90;99.90
30648;DHT22;17683;53.360;9.736;2023-04-28T06:55:23;8.90;99.90
30648;DHT22;17683;53.360;9.736;2023-04-28T06:57:49;9.10;99.90
30648;DHT22;17683;53.360;9.736;2023-04-28T07:00:15;9.20;99.90
30648;DHT22;17683;53.360;9.736;2023-04-28T07:02:41;9.20;99.90
30648;DHT22;17683;53.360;9.736;2023-04-28T07:05:07;9.20;99.90
30648;DHT22;17683;53.360;9.736;2023-04-28T07:07:33;9.20;99.90
30648;DHT22;17683;53.360;9.736;2023-04-28T07:09:59;9.30;99.90
30648;DHT22;17683;53.360;9.736;2023-04-28T07:12:25;9.40;99.90
30648;DHT22;17683;53.360;9.736;2023-04-28T07:14:51;9.50;99.90
30648;DHT22;17683;53.360;9.736;2023-04-28T07:17:17;9.50;99.90
30648;DHT22;17683;53.360;9.736;2023-04-28T07:19:42;9.50;99.90
30648;DHT22;17683;53.360;9.736;2023-04-28T07:22:08;9.60;99.90
30648;DHT22;17683;53.360;9.736;2023-04-28T07:24:35;9.60;99.90
30648;DHT22;17683;53.360;9.736;2023-04-28T07:27:00;9.80;99.90
30648;DHT22;17683;53.360;9.736;2023-04-28T07:29:28;9.90;99.90
30648;DHT22;17683;53.360;9.736;2023-04-28T07:31:58;10.00;99.90
30648;DHT22;17683;53.360;9.736;2023-04-28T07:34:24;10.20;99.90
30648;DHT22;17683;53.360;9.736;2023-04-28T07:36:50;10.20;99.90
30648;DHT22;17683;53.360;9.736;2023-04-28T07:39:16;10.40;99.90
30648;DHT22;17683;53.360;9.736;2023-04-28T07:41:41;10.50;99.90
30648;DHT22;17683;53.360;9.736;2023-04-28T07:44:07;10.60;99.90
30648;DHT22;17683;53.360;9.736;2023-04-28T07:46:33;10.70;99.90
30648;DHT22;17683;53.360;9.736;2023-04-28T07:48:59;10.90;99.90
30648;DHT22;17683;53.360;9.736;2023-04-28T07:51:25;10.90;99.90
30648;DHT22;17683;53.360;9.736;2023-04-28T07:53:51;11.10;99.90
30648;DHT22;17683;53.360;9.736;2023-04-28T07:56:17;11.20;99.90
30648;DHT22;17683;53.360;9.736;2023-04-28T07:58:43;11.30;99.90
30648;DHT22;17683;53.360;9.736;2023-04-28T08:01:08;11.40;99.90
30648;DHT22;17683;53.360;9.736;2023-04-28T08:03:34;11.50;99.90
30648;DHT22;17683;53.360;9.736;2023-04-28T08:06:00;11.60;99.30
30648;DHT22;17683;53.360;9.736;2023-04-28T08:08:26;11.50;98.60
30648;DHT22;17683;53.360;9.736;2023-04-28T08:10:52;11.60;99.10
30648;DHT22;17683;53.360;9.736;2023-04-28T08:13:18;11.60;99.00
30648;DHT22;17683;53.360;9.736;2023-04-28T08:15:44;11.70;97.50
30648;DHT22;17683;53.360;9.736;2023-04-28T08:18:11;11.70;98.40
30648;DHT22;17683;53.360;9.736;2023-04-28T08:20:37;11.80;98.30
30648;DHT22;17683;53.360;9.736;2023-04-28T08:23:02;11.70;98.20
30648;DHT22;17683;53.360;9.736;2023-04-28T08:25:28;11.80;98.20
30648;DHT22;17683;53.360;9.736;2023-04-28T08:27:55;11.90;98.80
30648;DHT22;17683;53.360;9.736;2023-04-28T08:30:21;12.00;98.80
30648;DHT22;17683;53.360;9.736;2023-04-28T08:32:46;12.00;98.00
30648;DHT22;17683;53.360;9.736;2023-04-28T08:35:12;12.00;97.40
30648;DHT22;17683;53.360;9.736;2023-04-28T08:37:40;12.00;96.60
30648;DHT22;17683;53.360;9.736;2023-04-28T08:40:06;12.00;97.10
30648;DHT22;17683;53.360;9.736;2023-04-28T08:42:35;12.00;97.40
30648;DHT22;17683;53.360;9.736;2023-04-28T08:45:03;12.10;97.40
30648;DHT22;17683;53.360;9.736;2023-04-28T08:47:35;12.10;97.70
30648;DHT22;17683;53.360;9.736;2023-04-28T08:50:06;12.10;96.80
30648;DHT22;17683;53.360;9.736;2023-04-28T08:52:33;12.30;98.70
30648;DHT22;17683;53.360;9.736;2023-04-28T08:55:01;12.40;97.10
30648;DHT22;17683;53.360;9.736;2023-04-28T08:57:58;12.50;97.60
30648;DHT22;17683;53.360;9.736;2023-04-28T09:00:22;12.70;97.10
30648;DHT22;17683;53.360;9.736;2023-04-28T09:02:49;12.70;96.50
30648;DHT22;17683;53.360;9.736;2023-04-28T09:05:14;12.60;94.90
30648;DHT22;17683;53.360;9.736;2023-04-28T09:07:42;12.70;95.60
30648;DHT22;17683;53.360;9.736;2023-04-28T09:10:21;12.70;94.40
30648;DHT22;17683;53.360;9.736;2023-04-28T09:12:50;12.80;95.70
30648;DHT22;17683;53.360;9.736;2023-04-28T09:15:26;12.90;95.90
30648;DHT22;17683;53.360;9.736;2023-04-28T09:17:52;13.00;95.70
30648;DHT22;17683;53.360;9.736;2023-04-28T09:20:22;13.10;95.80
30648;DHT22;17683;53.360;9.736;2023-04-28T09:22:49;13.20;95.50
30648;DHT22;17683;53.360;9.736;2023-04-28T09:25:16;13.30;95.00
30648;DHT22;17683;53.360;9.736;2023-04-28T09:27:42;13.50;94.80
30648;DHT22;17683;53.360;9.736;2023-04-28T09:30:08;13.40;94.00
30648;DHT22;17683;53.360;9.736;2023-04-28T09:32:34;13.50;94.20
30648;DHT22;17683;53.360;9.736;2023-04-28T09:35:01;13.50;95.00
30648;DHT22;17683;53.360;9.736;2023-04-28T09:37:29;13.50;94.40
30648;DHT22;17683;53.360;9.736;2023-04-28T09:40:01;13.50;94.10
30648;DHT22;17683;53.360;9.736;2023-04-28T09:47:30;13.40;93.70
30648;DHT22;17683;53.360;9.736;2023-04-28T09:50:10;13.30;94.00
30648;DHT22;17683;53.360;9.736;2023-04-28T09:52:40;13.30;93.10
30648;DHT22;17683;53.360;9.736;2023-04-28T09:55:07;13.30;94.20
30648;DHT22;17683;53.360;9.736;2023-04-28T09:57:34;13.50;94.70
30648;DHT22;17683;53.360;9.736;2023-04-28T10:00:01;13.40;93.40
30648;DHT22;17683;53.360;9.736;2023-04-28T10:02:31;13.40;93.90
30648;DHT22;17683;53.360;9.736;2023-04-28T10:04:58;13.50;93.90
30648;DHT22;17683;53.360;9.736;2023-04-28T10:07:25;13.50;94.00
30648;DHT22;17683;53.360;9.736;2023-04-28T10:09:52;13.60;93.30
30648;DHT22;17683;53.360;9.736;2023-04-28T10:12:20;13.70;94.30
30648;DHT22;17683;53.360;9.736;2023-04-28T10:14:47;13.80;94.60
30648;DHT22;17683;53.360;9.736;2023-04-28T10:17:19;13.80;94.70
30648;DHT22;17683;53.360;9.736;2023-04-28T10:19:47;13.90;94.10
30648;DHT22;17683;53.360;9.736;2023-04-28T10:22:28;14.00;93.70
30648;DHT22;17683;53.360;9.736;2023-04-28T10:27:39;14.00;93.70
30648;DHT22;17683;53.360;9.736;2023-04-28T10:30:25;14.00;93.50
30648;DHT22;17683;53.360;9.736;2023-04-28T10:43:13;14.10;94.20
30648;DHT22;17683;53.360;9.736;2023-04-28T10:58:40;14.30;92.40
30648;DHT22;17683;53.360;9.736;2023-04-28T11:01:29;14.20;93.00
30648;DHT22;17683;53.360;9.736;2023-04-28T11:04:09;14.20;93.90
30648;DHT22;17683;53.360;9.736;2023-04-28T11:06:45;14.20;92.40
30648;DHT22;17683;53.360;9.736;2023-04-28T11:19:20;15.00;92.10
30648;DHT22;17683;53.360;9.736;2023-04-28T11:21:47;15.10;92.70
30648;DHT22;17683;53.360;9.736;2023-04-28T11:24:13;15.10;92.60
30648;DHT22;17683;53.360;9.736;2023-04-28T11:26:40;15.20;93.00
30648;DHT22;17683;53.360;9.736;2023-04-28T11:29:06;15.30;92.60
30648;DHT22;17683;53.360;9.736;2023-04-28T11:31:33;15.20;91.20
30648;DHT22;17683;53.360;9.736;2023-04-28T11:34:07;15.10;92.50
30648;DHT22;17683;53.360;9.736;2023-04-28T11:36:37;15.20;93.20
30648;DHT22;17683;53.360;9.736;2023-04-28T11:39:05;15.20;91.40
30648;DHT22;17683;53.360;9.736;2023-04-28T11:41:36;15.20;91.70
30648;DHT22;17683;53.360;9.736;2023-04-28T11:44:16;15.10;91.60
30648;DHT22;17683;53.360;9.736;2023-04-28T11:49:11;15.00;91.60
30648;DHT22;17683;53.360;9.736;2023-04-28T11:51:39;15.00;91.60
30648;DHT22;17683;53.360;9.736;2023-04-28T11:54:07;14.90;91.40
30648;DHT22;17683;53.360;9.736;2023-04-28T11:56:40;14.80;91.60
30648;DHT22;17683;53.360;9.736;2023-04-28T11:59:12;14.60;92.00
30648;DHT22;17683;53.360;9.736;2023-04-28T12:01:49;14.70;92.80
30648;DHT22;17683;53.360;9.736;2023-04-28T12:07:00;14.60;92.90
30648;DHT22;17683;53.360;9.736;2023-04-28T12:09:26;14.60;92.40
30648;DHT22;17683;53.360;9.736;2023-04-28T12:11:53;14.70;93.70
30648;DHT22;17683;53.360;9.736;2023-04-28T12:14:20;14.70;92.60
30648;DHT22;17683;53.360;9.736;2023-04-28T12:16:46;14.80;92.30
30648;DHT22;17683;53.360;9.736;2023-04-28T12:19:13;14.90;93.10
30648;DHT22;17683;53.360;9.736;2023-04-28T12:21:40;14.90;92.90
30648;DHT22;17683;53.360;9.736;2023-04-28T12:24:19;14.80;92.30
30648;DHT22;17683;53.360;9.736;2023-04-28T12:26:49;14.70;92.00
30648;DHT22;17683;53.360;9.736;2023-04-28T12:29:34;14.70;92.40
30648;DHT22;17683;53.360;9.736;2023-04-28T12:32:00;14.70;92.00
30648;DHT22;17683;53.360;9.736;2023-04-28T12:34:26;14.70;92.80
30648;DHT22;17683;53.360;9.736;2023-04-28T12:36:53;14.70;92.70
30648;DHT22;17683;53.360;9.736;2023-04-28T12:39:19;14.60;92.80
30648;DHT22;17683;53.360;9.736;2023-04-28T12:41:47;14.60;92.90
30648;DHT22;17683;53.360;9.736;2023-04-28T12:44:13;14.60;93.50
30648;DHT22;17683;53.360;9.736;2023-04-28T12:46:40;14.70;93.70
30648;DHT22;17683;53.360;9.736;2023-04-28T12:49:06;14.70;93.10
30648;DHT22;17683;53.360;9.736;2023-04-28T12:51:32;14.80;93.90
30648;DHT22;17683;53.360;9.736;2023-04-28T12:54:00;14.90;93.00
30648;DHT22;17683;53.360;9.736;2023-04-28T12:56:25;14.90;93.50
30648;DHT22;17683;53.360;9.736;2023-04-28T12:58:52;15.00;93.30
30648;DHT22;17683;53.360;9.736;2023-04-28T13:01:17;15.00;93.50
30648;DHT22;17683;53.360;9.736;2023-04-28T13:03:43;15.00;94.00
30648;DHT22;17683;53.360;9.736;2023-04-28T13:06:09;15.00;93.20
30648;DHT22;17683;53.360;9.736;2023-04-28T13:08:35;15.00;94.10
30648;DHT22;17683;53.360;9.736;2023-04-28T13:11:01;14.90;93.90
30648;DHT22;17683;53.360;9.736;2023-04-28T13:13:30;14.80;92.70
30648;DHT22;17683;53.360;9.736;2023-04-28T13:15:55;14.80;93.60
30648;DHT22;17683;53.360;9.736;2023-04-28T13:18:42;14.70;93.40
30648;DHT22;17683;53.360;9.736;2023-04-28T13:21:08;14.70;93.30
30648;DHT22;17683;53.360;9.736;2023-04-28T13:23:34;14.70;93.80
30648;DHT22;17683;53.360;9.736;2023-04-28T13:26:00;14.60;93.80
30648;DHT22;17683;53.360;9.736;2023-04-28T13:28:27;14.70;94.40
30648;DHT22;17683;53.360;9.736;2023-04-28T13:30:53;14.60;93.10
30648;DHT22;17683;53.360;9.736;2023-04-28T13:33:19;14.70;94.30
30648;DHT22;17683;53.360;9.736;2023-04-28T13:35:44;14.60;94.90
30648;DHT22;17683;53.360;9.736;2023-04-28T13:38:10;14.70;95.50
30648;DHT22;17683;53.360;9.736;2023-04-28T13:40:36;14.70;96.00
30648;DHT22;17683;53.360;9.736;2023-04-28T13:43:01;14.70;97.00
30648;DHT22;17683;53.360;9.736;2023-04-28T13:45:28;14.60;96.10
30648;DHT22;17683;53.360;9.736;2023-04-28T13:47:53;14.60;96.30
30648;DHT22;17683;53.360;9.736;2023-04-28T13:50:20;14.60;95.80
30648;DHT22;17683;53.360;9.736;2023-04-28T13:52:45;14.60;96.40
30648;DHT22;17683;53.360;9.736;2023-04-28T13:55:11;14.60;96.20
30648;DHT22;17683;53.360;9.736;2023-04-28T13:57:37;14.70;96.20
30648;DHT22;17683;53.360;9.736;2023-04-28T14:00:03;14.70;95.70
30648;DHT22;17683;53.360;9.736;2023-04-28T14:02:29;14.60;95.00
30648;DHT22;17683;53.360;9.736;2023-04-28T14:04:56;14.70;94.20
30648;DHT22;17683;53.360;9.736;2023-04-28T14:07:22;14.60;94.80
30648;DHT22;17683;53.360;9.736;2023-04-28T14:09:48;14.50;94.30
30648;DHT22;17683;53.360;9.736;2023-04-28T14:12:14;14.40;94.40
30648;DHT22;17683;53.360;9.736;2023-04-28T14:14:40;14.40;94.60
30648;DHT22;17683;53.360;9.736;2023-04-28T14:17:07;14.40;94.60
30648;DHT22;17683;53.360;9.736;2023-04-28T14:19:33;14.40;95.60
30648;DHT22;17683;53.360;9.736;2023-04-28T14:21:58;14.40;95.70
30648;DHT22;17683;53.360;9.736;2023-04-28T14:24:24;14.40;94.40
30648;DHT22;17683;53.360;9.736;2023-04-28T14:26:51;14.20;94.60
30648;DHT22;17683;53.360;9.736;2023-04-28T14:29:17;14.30;94.70
30648;DHT22;17683;53.360;9.736;2023-04-28T14:31:42;14.20;94.80
30648;DHT22;17683;53.360;9.736;2023-04-28T14:34:08;14.20;95.70
30648;DHT22;17683;53.360;9.736;2023-04-28T14:36:34;14.20;95.20
30648;DHT22;17683;53.360;9.736;2023-04-28T14:39:02;14.20;94.70
30648;DHT22;17683;53.360;9.736;2023-04-28T14:41:28;14.10;94.70
30648;DHT22;17683;53.360;9.736;2023-04-28T14:43:54;14.10;95.20
30648;DHT22;17683;53.360;9.736;2023-04-28T14:46:23;14.10;95.30
30648;DHT22;17683;53.360;9.736;2023-04-28T14:48:49;14.10;95.20
30648;DHT22;17683;53.360;9.736;2023-04-28T14:51:15;14.10;96.20
30648;DHT22;17683;53.360;9.736;2023-04-28T14:53:41;14.00;96.10
30648;DHT22;17683;53.360;9.736;2023-04-28T14:56:07;14.00;95.90
30648;DHT22;17683;53.360;9.736;2023-04-28T14:58:36;13.90;96.10
30648;DHT22;17683;53.360;9.736;2023-04-28T15:01:02;13.90;96.30
30648;DHT22;17683;53.360;9.736;2023-04-28T15:03:28;13.90;96.20
30648;DHT22;17683;53.360;9.736;2023-04-28T15:05:54;13.90;96.30
30648;DHT22;17683;53.360;9.736;2023-04-28T15:08:20;13.90;95.90
30648;DHT22;17683;53.360;9.736;2023-04-28T15:10:46;13.80;96.00
30648;DHT22;17683;53.360;9.736;2023-04-28T15:13:11;13.80;95.90
30648;DHT22;17683;53.360;9.736;2023-04-28T15:15:37;13.80;96.40
30648;DHT22;17683;53.360;9.736;2023-04-28T15:18:06;13.90;95.90
30648;DHT22;17683;53.360;9.736;2023-04-28T15:20:32;13.80;95.70
30648;DHT22;17683;53.360;9.736;2023-04-28T15:22:59;13.70;95.80
30648;DHT22;17683;53.360;9.736;2023-04-28T15:25:26;13.70;95.50
30648;DHT22;17683;53.360;9.736;2023-04-28T15:27:52;13.70;95.30
30648;DHT22;17683;53.360;9.736;2023-04-28T15:30:18;13.70;96.00
30648;DHT22;17683;53.360;9.736;2023-04-28T15:32:44;13.70;96.20
30648;DHT22;17683;53.360;9.736;2023-04-28T15:35:10;13.60;96.00
30648;DHT22;17683;53.360;9.736;2023-04-28T15:40:04;13.60;97.60
30648;DHT22;17683;53.360;9.736;2023-04-28T15:42:30;13.60;99.90
30648;DHT22;17683;53.360;9.736;2023-04-28T15:44:56;13.30;99.90
30648;DHT22;17683;53.360;9.736;2023-04-28T15:47:22;13.30;99.90
30648;DHT22;17683;53.360;9.736;2023-04-28T15:49:49;13.20;99.90
30648;DHT22;17683;53.360;9.736;2023-04-28T15:52:15;13.00;99.90
30648;DHT22;17683;53.360;9.736;2023-04-28T15:54:41;12.90;99.90
30648;DHT22;17683;53.360;9.736;2023-04-28T15:57:08;12.80;99.90
30648;DHT22;17683;53.360;9.736;2023-04-28T15:59:33;12.80;99.90
30648;DHT22;17683;53.360;9.736;2023-04-28T16:02:00;12.80;99.90
30648;DHT22;17683;53.360;9.736;2023-04-28T16:04:26;12.80;99.90
30648;DHT22;17683;53.360;9.736;2023-04-28T16:06:53;12.80;99.90
30648;DHT22;17683;53.360;9.736;2023-04-28T16:09:20;12.60;99.90
30648;DHT22;17683;53.360;9.736;2023-04-28T16:11:45;12.50;99.90
30648;DHT22;17683;53.360;9.736;2023-04-28T16:14:12;12.30;99.90
30648;DHT22;17683;53.360;9.736;2023-04-28T16:16:37;12.20;99.90
30648;DHT22;17683;53.360;9.736;2023-04-28T16:19:03;12.20;99.90
30648;DHT22;17683;53.360;9.736;2023-04-28T16:21:29;12.10;99.90
30648;DHT22;17683;53.360;9.736;2023-04-28T16:23:56;12.00;99.90